sensor_id;sensor_type;location;lat;lon;timestamp;P1;durP1;ratioP1;P2;durP2;ratioP2
58141;SDS011;53186;47.382;18.904;2022-07-23T00:01:54;13.00;;;6.20;;
58141;SDS011;53186;47.382;18.904;2022-07-23T00:04:22;16.10;;;6.72;;
58141;SDS011;53186;47.382;18.904;2022-07-23T00:06:49;12.73;;;6.57;;
58141;SDS011;53186;47.382;18.904;2022-07-23T00:09:16;15.27;;;6.72;;
58141;SDS011;53186;47.382;18.904;2022-07-23T00:11:44;13.48;;;6.70;;
58141;SDS011;53186;47.382;18.904;2022-07-23T00:14:11;11.80;;;6.62;;
58141;SDS011;53186;47.382;18.904;2022-07-23T00:16:38;14.98;;;6.37;;
58141;SDS011;53186;47.382;18.904;2022-07-23T00:19:05;17.37;;;7.20;;
58141;SDS011;53186;47.382;18.904;2022-07-23T00:21:33;26.60;;;16.90;;
58141;SDS011;53186;47.382;18.904;2022-07-23T00:24:02;13.20;;;8.52;;
58141;SDS011;53186;47.382;18.904;2022-07-23T00:26:30;16.62;;;7.10;;
58141;SDS011;53186;47.382;18.904;2022-07-23T00:28:57;14.25;;;7.07;;
58141;SDS011;53186;47.382;18.904;2022-07-23T00:31:24;14.23;;;6.95;;
58141;SDS011;53186;47.382;18.904;2022-07-23T00:33:52;13.85;;;6.97;;
58141;SDS011;53186;47.382;18.904;2022-07-23T00:36:23;16.23;;;6.93;;
58141;SDS011;53186;47.382;18.904;2022-07-23T00:38:50;16.40;;;6.87;;
58141;SDS011;53186;47.382;18.904;2022-07-23T00:41:18;15.32;;;7.15;;
58141;SDS011;53186;47.382;18.904;2022-07-23T00:43:45;15.75;;;7.22;;
58141;SDS011;53186;47.382;18.904;2022-07-23T00:46:12;12.85;;;6.70;;
58141;SDS011;53186;47.382;18.904;2022-07-23T00:48:40;9.55;;;7.20;;
58141;SDS011;53186;47.382;18.904;2022-07-23T00:51:07;11.57;;;7.00;;
58141;SDS011;53186;47.382;18.904;2022-07-23T00:53:34;15.48;;;7.00;;
58141;SDS011;53186;47.382;18.904;2022-07-23T00:56:02;16.75;;;7.12;;
58141;SDS011;53186;47.382;18.904;2022-07-23T00:58:29;8.65;;;6.60;;
58141;SDS011;53186;47.382;18.904;2022-07-23T01:00:56;14.43;;;6.80;;
58141;SDS011;53186;47.382;18.904;2022-07-23T01:03:24;10.88;;;6.60;;
58141;SDS011;53186;47.382;18.904;2022-07-23T01:05:51;11.30;;;7.20;;
58141;SDS011;53186;47.382;18.904;2022-07-23T01:08:19;11.70;;;6.68;;
58141;SDS011;53186;47.382;18.904;2022-07-23T01:10:49;13.77;;;7.60;;
58141;SDS011;53186;47.382;18.904;2022-07-23T01:13:17;15.00;;;6.97;;
58141;SDS011;53186;47.382;18.904;2022-07-23T01:15:45;11.45;;;6.60;;
58141;SDS011;53186;47.382;18.904;2022-07-23T01:18:12;11.32;;;6.70;;
58141;SDS011;53186;47.382;18.904;2022-07-23T01:20:40;14.20;;;7.22;;
58141;SDS011;53186;47.382;18.904;2022-07-23T01:23:08;10.32;;;6.82;;
58141;SDS011;53186;47.382;18.904;2022-07-23T01:25:36;13.55;;;7.37;;
58141;SDS011;53186;47.382;18.904;2022-07-23T01:28:05;10.52;;;6.12;;
58141;SDS011;53186;47.382;18.904;2022-07-23T01:30:32;12.95;;;7.10;;
58141;SDS011;53186;47.382;18.904;2022-07-23T01:33:00;11.25;;;6.93;;
58141;SDS011;53186;47.382;18.904;2022-07-23T01:35:27;10.00;;;6.47;;
58141;SDS011;53186;47.382;18.904;2022-07-23T01:37:55;10.63;;;6.47;;
58141;SDS011;53186;47.382;18.904;2022-07-23T01:40:23;16.42;;;6.22;;
58141;SDS011;53186;47.382;18.904;2022-07-23T01:42:51;11.75;;;7.00;;
58141;SDS011;53186;47.382;18.904;2022-07-23T01:45:19;11.50;;;6.57;;
58141;SDS011;53186;47.382;18.904;2022-07-23T01:47:47;9.73;;;6.20;;
58141;SDS011;53186;47.382;18.904;2022-07-23T01:50:15;11.68;;;6.93;;
58141;SDS011;53186;47.382;18.904;2022-07-23T01:52:43;12.18;;;6.87;;
58141;SDS011;53186;47.382;18.904;2022-07-23T01:55:10;13.62;;;6.60;;
58141;SDS011;53186;47.382;18.904;2022-07-23T01:57:45;18.10;;;7.32;;
58141;SDS011;53186;47.382;18.904;2022-07-23T02:00:14;10.23;;;7.30;;
58141;SDS011;53186;47.382;18.904;2022-07-23T02:02:44;7.82;;;6.70;;
58141;SDS011;53186;47.382;18.904;2022-07-23T02:05:11;12.02;;;6.90;;
58141;SDS011;53186;47.382;18.904;2022-07-23T02:07:38;13.02;;;7.20;;
58141;SDS011;53186;47.382;18.904;2022-07-23T02:10:06;8.63;;;6.60;;
58141;SDS011;53186;47.382;18.904;2022-07-23T02:12:36;11.93;;;6.97;;
58141;SDS011;53186;47.382;18.904;2022-07-23T02:15:03;13.80;;;7.47;;
58141;SDS011;53186;47.382;18.904;2022-07-23T02:17:31;14.20;;;7.15;;
58141;SDS011;53186;47.382;18.904;2022-07-23T02:20:00;9.75;;;7.05;;
58141;SDS011;53186;47.382;18.904;2022-07-23T02:22:28;11.80;;;7.53;;
58141;SDS011;53186;47.382;18.904;2022-07-23T02:24:55;17.95;;;7.25;;
58141;SDS011;53186;47.382;18.904;2022-07-23T02:27:22;11.45;;;7.95;;
58141;SDS011;53186;47.382;18.904;2022-07-23T02:29:50;19.12;;;7.20;;
58141;SDS011;53186;47.382;18.904;2022-07-23T02:32:17;20.73;;;7.68;;
58141;SDS011;53186;47.382;18.904;2022-07-23T02:34:44;14.15;;;6.85;;
58141;SDS011;53186;47.382;18.904;2022-07-23T02:37:11;11.82;;;7.35;;
58141;SDS011;53186;47.382;18.904;2022-07-23T02:39:39;12.45;;;7.50;;
58141;SDS011;53186;47.382;18.904;2022-07-23T02:42:06;13.70;;;7.28;;
58141;SDS011;53186;47.382;18.904;2022-07-23T02:44:35;11.15;;;7.75;;
58141;SDS011;53186;47.382;18.904;2022-07-23T02:47:03;14.23;;;7.62;;
58141;SDS011;53186;47.382;18.904;2022-07-23T02:49:32;15.02;;;7.37;;
58141;SDS011;53186;47.382;18.904;2022-07-23T02:52:00;15.40;;;7.97;;
58141;SDS011;53186;47.382;18.904;2022-07-23T02:54:27;13.35;;;7.62;;
58141;SDS011;53186;47.382;18.904;2022-07-23T02:56:54;11.88;;;7.25;;
58141;SDS011;53186;47.382;18.904;2022-07-23T02:59:21;11.32;;;7.00;;
58141;SDS011;53186;47.382;18.904;2022-07-23T03:01:49;15.40;;;7.78;;
58141;SDS011;53186;47.382;18.904;2022-07-23T03:04:17;11.77;;;7.00;;
58141;SDS011;53186;47.382;18.904;2022-07-23T03:06:44;15.77;;;8.23;;
58141;SDS011;53186;47.382;18.904;2022-07-23T03:09:11;15.13;;;7.10;;
58141;SDS011;53186;47.382;18.904;2022-07-23T03:11:39;13.60;;;7.20;;
58141;SDS011;53186;47.382;18.904;2022-07-23T03:14:06;14.02;;;8.25;;
58141;SDS011;53186;47.382;18.904;2022-07-23T03:16:34;15.57;;;8.00;;
58141;SDS011;53186;47.382;18.904;2022-07-23T03:19:02;12.75;;;7.50;;
58141;SDS011;53186;47.382;18.904;2022-07-23T03:21:32;13.62;;;7.22;;
58141;SDS011;53186;47.382;18.904;2022-07-23T03:24:01;10.95;;;7.37;;
58141;SDS011;53186;47.382;18.904;2022-07-23T03:26:28;16.45;;;7.40;;
58141;SDS011;53186;47.382;18.904;2022-07-23T03:28:56;12.15;;;7.43;;
58141;SDS011;53186;47.382;18.904;2022-07-23T03:31:23;17.62;;;7.15;;
58141;SDS011;53186;47.382;18.904;2022-07-23T03:33:51;10.32;;;6.78;;
58141;SDS011;53186;47.382;18.904;2022-07-23T03:36:18;11.93;;;7.35;;
58141;SDS011;53186;47.382;18.904;2022-07-23T03:38:48;11.50;;;7.25;;
58141;SDS011;53186;47.382;18.904;2022-07-23T03:41:18;13.20;;;7.60;;
58141;SDS011;53186;47.382;18.904;2022-07-23T03:43:46;14.90;;;7.57;;
58141;SDS011;53186;47.382;18.904;2022-07-23T03:46:13;10.55;;;7.07;;
58141;SDS011;53186;47.382;18.904;2022-07-23T03:48:41;10.65;;;7.72;;
58141;SDS011;53186;47.382;18.904;2022-07-23T03:51:08;10.65;;;7.22;;
58141;SDS011;53186;47.382;18.904;2022-07-23T03:53:37;9.93;;;7.20;;
58141;SDS011;53186;47.382;18.904;2022-07-23T03:56:04;15.43;;;7.47;;
58141;SDS011;53186;47.382;18.904;2022-07-23T03:58:32;12.65;;;7.32;;
58141;SDS011;53186;47.382;18.904;2022-07-23T04:01:00;10.20;;;7.50;;
58141;SDS011;53186;47.382;18.904;2022-07-23T04:03:27;16.40;;;8.13;;
58141;SDS011;53186;47.382;18.904;2022-07-23T04:05:54;14.43;;;7.57;;
58141;SDS011;53186;47.382;18.904;2022-07-23T04:08:22;15.88;;;7.82;;
58141;SDS011;53186;47.382;18.904;2022-07-23T04:10:50;14.68;;;7.85;;
58141;SDS011;53186;47.382;18.904;2022-07-23T04:13:17;13.15;;;7.82;;
58141;SDS011;53186;47.382;18.904;2022-07-23T04:15:46;15.63;;;7.78;;
58141;SDS011;53186;47.382;18.904;2022-07-23T04:18:15;17.58;;;8.30;;
58141;SDS011;53186;47.382;18.904;2022-07-23T04:20:44;13.68;;;7.35;;
58141;SDS011;53186;47.382;18.904;2022-07-23T04:23:11;16.23;;;8.15;;
58141;SDS011;53186;47.382;18.904;2022-07-23T04:25:40;13.30;;;8.10;;
58141;SDS011;53186;47.382;18.904;2022-07-23T04:28:07;14.77;;;7.97;;
58141;SDS011;53186;47.382;18.904;2022-07-23T04:30:34;18.23;;;8.30;;
58141;SDS011;53186;47.382;18.904;2022-07-23T04:33:02;18.55;;;7.90;;
58141;SDS011;53186;47.382;18.904;2022-07-23T04:38:05;18.27;;;7.50;;
58141;SDS011;53186;47.382;18.904;2022-07-23T04:40:34;11.95;;;7.28;;
58141;SDS011;53186;47.382;18.904;2022-07-23T04:43:01;15.07;;;7.80;;
58141;SDS011;53186;47.382;18.904;2022-07-23T04:45:31;13.07;;;7.97;;
58141;SDS011;53186;47.382;18.904;2022-07-23T04:47:59;14.55;;;8.40;;
58141;SDS011;53186;47.382;18.904;2022-07-23T04:50:27;14.30;;;8.30;;
58141;SDS011;53186;47.382;18.904;2022-07-23T04:52:56;17.80;;;8.90;;
58141;SDS011;53186;47.382;18.904;2022-07-23T04:55:24;17.62;;;8.48;;
58141;SDS011;53186;47.382;18.904;2022-07-23T04:57:51;18.62;;;7.93;;
58141;SDS011;53186;47.382;18.904;2022-07-23T05:00:18;18.37;;;8.02;;
58141;SDS011;53186;47.382;18.904;2022-07-23T05:02:46;13.23;;;8.82;;
58141;SDS011;53186;47.382;18.904;2022-07-23T05:05:13;12.07;;;6.97;;
58141;SDS011;53186;47.382;18.904;2022-07-23T05:07:41;15.18;;;8.32;;
58141;SDS011;53186;47.382;18.904;2022-07-23T05:10:08;15.82;;;8.48;;
58141;SDS011;53186;47.382;18.904;2022-07-23T05:12:35;11.57;;;7.60;;
58141;SDS011;53186;47.382;18.904;2022-07-23T05:15:03;16.20;;;7.47;;
58141;SDS011;53186;47.382;18.904;2022-07-23T05:17:30;13.80;;;7.85;;
58141;SDS011;53186;47.382;18.904;2022-07-23T05:19:57;12.18;;;7.65;;
58141;SDS011;53186;47.382;18.904;2022-07-23T05:22:28;10.18;;;7.20;;
58141;SDS011;53186;47.382;18.904;2022-07-23T05:24:55;17.33;;;7.60;;
58141;SDS011;53186;47.382;18.904;2022-07-23T05:27:22;11.12;;;6.68;;
58141;SDS011;53186;47.382;18.904;2022-07-23T05:29:50;10.88;;;7.12;;
58141;SDS011;53186;47.382;18.904;2022-07-23T05:32:17;11.88;;;7.37;;
58141;SDS011;53186;47.382;18.904;2022-07-23T05:34:46;12.73;;;7.15;;
58141;SDS011;53186;47.382;18.904;2022-07-23T05:37:14;11.73;;;6.60;;
58141;SDS011;53186;47.382;18.904;2022-07-23T05:39:41;14.48;;;7.10;;
58141;SDS011;53186;47.382;18.904;2022-07-23T05:42:08;13.23;;;6.62;;
58141;SDS011;53186;47.382;18.904;2022-07-23T05:44:36;13.35;;;6.50;;
58141;SDS011;53186;47.382;18.904;2022-07-23T05:47:04;12.95;;;6.87;;
58141;SDS011;53186;47.382;18.904;2022-07-23T05:49:31;12.35;;;6.68;;
58141;SDS011;53186;47.382;18.904;2022-07-23T05:52:07;12.30;;;7.20;;
58141;SDS011;53186;47.382;18.904;2022-07-23T05:54:39;11.93;;;6.47;;
58141;SDS011;53186;47.382;18.904;2022-07-23T05:57:06;14.70;;;6.75;;
58141;SDS011;53186;47.382;18.904;2022-07-23T05:59:33;10.65;;;6.28;;
58141;SDS011;53186;47.382;18.904;2022-07-23T06:02:01;8.25;;;6.47;;
58141;SDS011;53186;47.382;18.904;2022-07-23T06:04:28;9.88;;;5.87;;
58141;SDS011;53186;47.382;18.904;2022-07-23T06:06:58;11.93;;;6.15;;
58141;SDS011;53186;47.382;18.904;2022-07-23T06:09:25;14.20;;;6.35;;
58141;SDS011;53186;47.382;18.904;2022-07-23T06:11:53;11.50;;;5.95;;
58141;SDS011;53186;47.382;18.904;2022-07-23T06:14:21;9.75;;;5.43;;
58141;SDS011;53186;47.382;18.904;2022-07-23T06:16:48;9.40;;;5.62;;
58141;SDS011;53186;47.382;18.904;2022-07-23T06:19:16;9.85;;;5.80;;
58141;SDS011;53186;47.382;18.904;2022-07-23T06:21:43;9.20;;;5.40;;
58141;SDS011;53186;47.382;18.904;2022-07-23T06:24:13;13.10;;;4.95;;
58141;SDS011;53186;47.382;18.904;2022-07-23T06:26:41;12.57;;;5.45;;
58141;SDS011;53186;47.382;18.904;2022-07-23T06:29:08;13.35;;;5.80;;
58141;SDS011;53186;47.382;18.904;2022-07-23T06:31:35;8.82;;;5.60;;
58141;SDS011;53186;47.382;18.904;2022-07-23T06:34:03;10.88;;;5.68;;
58141;SDS011;53186;47.382;18.904;2022-07-23T06:36:30;9.90;;;5.65;;
58141;SDS011;53186;47.382;18.904;2022-07-23T06:38:57;10.23;;;5.47;;
58141;SDS011;53186;47.382;18.904;2022-07-23T06:41:25;7.78;;;4.93;;
58141;SDS011;53186;47.382;18.904;2022-07-23T06:43:52;11.27;;;5.75;;
58141;SDS011;53186;47.382;18.904;2022-07-23T06:46:20;9.57;;;5.00;;
58141;SDS011;53186;47.382;18.904;2022-07-23T06:48:49;6.20;;;4.85;;
58141;SDS011;53186;47.382;18.904;2022-07-23T06:51:16;17.70;;;5.80;;
58141;SDS011;53186;47.382;18.904;2022-07-23T06:53:43;8.68;;;4.35;;
58141;SDS011;53186;47.382;18.904;2022-07-23T06:56:11;5.85;;;5.22;;
58141;SDS011;53186;47.382;18.904;2022-07-23T06:58:39;15.73;;;5.00;;
58141;SDS011;53186;47.382;18.904;2022-07-23T07:01:06;6.50;;;5.00;;
58141;SDS011;53186;47.382;18.904;2022-07-23T07:03:34;9.52;;;5.32;;
58141;SDS011;53186;47.382;18.904;2022-07-23T07:06:21;11.32;;;5.15;;
58141;SDS011;53186;47.382;18.904;2022-07-23T07:08:48;7.68;;;4.85;;
58141;SDS011;53186;47.382;18.904;2022-07-23T07:11:16;11.25;;;5.10;;
58141;SDS011;53186;47.382;18.904;2022-07-23T07:13:43;5.57;;;4.60;;
58141;SDS011;53186;47.382;18.904;2022-07-23T07:16:10;9.70;;;4.90;;
58141;SDS011;53186;47.382;18.904;2022-07-23T07:18:38;9.55;;;4.90;;
58141;SDS011;53186;47.382;18.904;2022-07-23T07:21:05;11.50;;;5.30;;
58141;SDS011;53186;47.382;18.904;2022-07-23T07:23:32;13.73;;;4.53;;
58141;SDS011;53186;47.382;18.904;2022-07-23T07:25:59;8.75;;;4.95;;
58141;SDS011;53186;47.382;18.904;2022-07-23T07:28:27;9.02;;;5.10;;
58141;SDS011;53186;47.382;18.904;2022-07-23T07:30:54;12.07;;;5.20;;
58141;SDS011;53186;47.382;18.904;2022-07-23T07:33:21;12.23;;;4.90;;
58141;SDS011;53186;47.382;18.904;2022-07-23T07:35:49;8.90;;;4.78;;
58141;SDS011;53186;47.382;18.904;2022-07-23T07:38:16;7.37;;;5.15;;
58141;SDS011;53186;47.382;18.904;2022-07-23T07:40:43;12.85;;;5.57;;
58141;SDS011;53186;47.382;18.904;2022-07-23T07:43:10;12.73;;;5.57;;
58141;SDS011;53186;47.382;18.904;2022-07-23T07:45:38;13.82;;;4.95;;
58141;SDS011;53186;47.382;18.904;2022-07-23T07:48:05;12.98;;;4.80;;
58141;SDS011;53186;47.382;18.904;2022-07-23T07:50:32;15.38;;;5.12;;
58141;SDS011;53186;47.382;18.904;2022-07-23T07:53:00;7.40;;;4.80;;
58141;SDS011;53186;47.382;18.904;2022-07-23T07:55:27;9.75;;;4.70;;
58141;SDS011;53186;47.382;18.904;2022-07-23T07:57:55;10.60;;;4.82;;
58141;SDS011;53186;47.382;18.904;2022-07-23T08:00:23;8.15;;;4.97;;
58141;SDS011;53186;47.382;18.904;2022-07-23T08:02:51;9.55;;;4.80;;
58141;SDS011;53186;47.382;18.904;2022-07-23T08:05:20;15.65;;;4.47;;
58141;SDS011;53186;47.382;18.904;2022-07-23T08:07:57;7.72;;;4.85;;
58141;SDS011;53186;47.382;18.904;2022-07-23T08:10:25;12.93;;;5.05;;
58141;SDS011;53186;47.382;18.904;2022-07-23T08:12:54;14.05;;;5.43;;
58141;SDS011;53186;47.382;18.904;2022-07-23T08:15:26;10.57;;;5.32;;
58141;SDS011;53186;47.382;18.904;2022-07-23T08:17:54;14.23;;;4.95;;
58141;SDS011;53186;47.382;18.904;2022-07-23T08:20:22;11.88;;;5.40;;
58141;SDS011;53186;47.382;18.904;2022-07-23T08:22:58;11.00;;;4.93;;
58141;SDS011;53186;47.382;18.904;2022-07-23T08:25:28;9.57;;;5.07;;
58141;SDS011;53186;47.382;18.904;2022-07-23T08:27:57;9.48;;;4.78;;
58141;SDS011;53186;47.382;18.904;2022-07-23T08:30:25;13.13;;;4.80;;
58141;SDS011;53186;47.382;18.904;2022-07-23T08:35:25;10.88;;;4.95;;
58141;SDS011;53186;47.382;18.904;2022-07-23T08:37:58;5.53;;;4.10;;
58141;SDS011;53186;47.382;18.904;2022-07-23T08:40:27;10.95;;;4.53;;
58141;SDS011;53186;47.382;18.904;2022-07-23T08:42:55;9.85;;;4.60;;
58141;SDS011;53186;47.382;18.904;2022-07-23T08:45:23;13.30;;;5.00;;
58141;SDS011;53186;47.382;18.904;2022-07-23T08:47:55;7.22;;;4.12;;
58141;SDS011;53186;47.382;18.904;2022-07-23T08:50:31;5.85;;;4.50;;
58141;SDS011;53186;47.382;18.904;2022-07-23T08:52:59;6.95;;;4.12;;
58141;SDS011;53186;47.382;18.904;2022-07-23T08:55:27;10.52;;;4.53;;
58141;SDS011;53186;47.382;18.904;2022-07-23T08:57:54;8.80;;;5.07;;
58141;SDS011;53186;47.382;18.904;2022-07-23T09:00:22;9.32;;;4.00;;
58141;SDS011;53186;47.382;18.904;2022-07-23T09:02:49;10.30;;;4.97;;
58141;SDS011;53186;47.382;18.904;2022-07-23T09:05:18;10.02;;;4.32;;
58141;SDS011;53186;47.382;18.904;2022-07-23T09:16:02;7.00;;;5.15;;
58141;SDS011;53186;47.382;18.904;2022-07-23T09:18:42;11.40;;;5.28;;
58141;SDS011;53186;47.382;18.904;2022-07-23T09:23:40;8.43;;;4.93;;
58141;SDS011;53186;47.382;18.904;2022-07-23T09:31:52;6.30;;;4.57;;
58141;SDS011;53186;47.382;18.904;2022-07-23T09:34:26;6.30;;;4.85;;
58141;SDS011;53186;47.382;18.904;2022-07-23T09:36:55;8.60;;;4.75;;
58141;SDS011;53186;47.382;18.904;2022-07-23T09:39:47;8.38;;;4.60;;
58141;SDS011;53186;47.382;18.904;2022-07-23T09:42:25;4.72;;;3.90;;
58141;SDS011;53186;47.382;18.904;2022-07-23T09:44:54;11.18;;;4.28;;
58141;SDS011;53186;47.382;18.904;2022-07-23T09:47:22;5.68;;;4.10;;
58141;SDS011;53186;47.382;18.904;2022-07-23T09:50:04;7.12;;;4.18;;
58141;SDS011;53186;47.382;18.904;2022-07-23T09:52:46;9.52;;;4.55;;
58141;SDS011;53186;47.382;18.904;2022-07-23T09:55:16;11.90;;;4.65;;
58141;SDS011;53186;47.382;18.904;2022-07-23T09:57:44;9.13;;;4.50;;
58141;SDS011;53186;47.382;18.904;2022-07-23T10:00:13;10.60;;;4.10;;
58141;SDS011;53186;47.382;18.904;2022-07-23T10:02:41;10.23;;;4.78;;
58141;SDS011;53186;47.382;18.904;2022-07-23T10:05:30;13.55;;;4.68;;
58141;SDS011;53186;47.382;18.904;2022-07-23T10:08:01;6.00;;;4.43;;
58141;SDS011;53186;47.382;18.904;2022-07-23T10:10:33;7.07;;;4.30;;
58141;SDS011;53186;47.382;18.904;2022-07-23T10:13:04;7.70;;;4.18;;
58141;SDS011;53186;47.382;18.904;2022-07-23T10:15:37;9.02;;;4.55;;
58141;SDS011;53186;47.382;18.904;2022-07-23T10:18:09;11.02;;;4.37;;
58141;SDS011;53186;47.382;18.904;2022-07-23T10:20:37;7.25;;;4.32;;
58141;SDS011;53186;47.382;18.904;2022-07-23T10:23:08;6.60;;;4.00;;
58141;SDS011;53186;47.382;18.904;2022-07-23T10:36:54;9.25;;;3.80;;
58141;SDS011;53186;47.382;18.904;2022-07-23T10:39:28;7.32;;;3.87;;
58141;SDS011;53186;47.382;18.904;2022-07-23T10:42:11;6.40;;;3.85;;
58141;SDS011;53186;47.382;18.904;2022-07-23T10:44:44;7.40;;;4.12;;
58141;SDS011;53186;47.382;18.904;2022-07-23T10:47:26;9.18;;;3.72;;
58141;SDS011;53186;47.382;18.904;2022-07-23T10:50:25;11.20;;;5.10;;
58141;SDS011;53186;47.382;18.904;2022-07-23T10:58:00;14.10;;;4.55;;
58141;SDS011;53186;47.382;18.904;2022-07-23T11:00:29;7.53;;;4.43;;
58141;SDS011;53186;47.382;18.904;2022-07-23T11:02:58;8.02;;;4.80;;
58141;SDS011;53186;47.382;18.904;2022-07-23T11:05:48;11.55;;;4.50;;
58141;SDS011;53186;47.382;18.904;2022-07-23T11:08:15;10.02;;;4.05;;
58141;SDS011;53186;47.382;18.904;2022-07-23T11:10:51;9.63;;;4.37;;
58141;SDS011;53186;47.382;18.904;2022-07-23T11:13:30;8.55;;;4.60;;
58141;SDS011;53186;47.382;18.904;2022-07-23T11:31:58;7.55;;;5.18;;
58141;SDS011;53186;47.382;18.904;2022-07-23T11:34:32;10.00;;;5.10;;
58141;SDS011;53186;47.382;18.904;2022-07-23T11:37:00;9.48;;;5.00;;
58141;SDS011;53186;47.382;18.904;2022-07-23T11:39:28;8.20;;;5.12;;
58141;SDS011;53186;47.382;18.904;2022-07-23T11:41:57;7.32;;;5.00;;
58141;SDS011;53186;47.382;18.904;2022-07-23T11:44:25;7.28;;;5.05;;
58141;SDS011;53186;47.382;18.904;2022-07-23T11:46:54;6.53;;;4.65;;
58141;SDS011;53186;47.382;18.904;2022-07-23T11:49:26;7.40;;;5.07;;
58141;SDS011;53186;47.382;18.904;2022-07-23T11:54:35;9.55;;;4.32;;
58141;SDS011;53186;47.382;18.904;2022-07-23T11:57:06;9.35;;;4.90;;
58141;SDS011;53186;47.382;18.904;2022-07-23T11:59:33;6.03;;;4.47;;
58141;SDS011;53186;47.382;18.904;2022-07-23T12:02:05;7.62;;;4.97;;
58141;SDS011;53186;47.382;18.904;2022-07-23T12:04:43;6.15;;;5.55;;
58141;SDS011;53186;47.382;18.904;2022-07-23T12:12:38;7.85;;;5.40;;
58141;SDS011;53186;47.382;18.904;2022-07-23T12:15:06;10.07;;;5.65;;
58141;SDS011;53186;47.382;18.904;2022-07-23T12:17:38;7.05;;;6.12;;
58141;SDS011;53186;47.382;18.904;2022-07-23T12:20:07;8.52;;;5.10;;
58141;SDS011;53186;47.382;18.904;2022-07-23T12:22:37;10.23;;;5.25;;
58141;SDS011;53186;47.382;18.904;2022-07-23T12:25:23;13.73;;;5.40;;
58141;SDS011;53186;47.382;18.904;2022-07-23T12:28:11;7.80;;;4.90;;
58141;SDS011;53186;47.382;18.904;2022-07-23T12:33:21;7.60;;;4.40;;
58141;SDS011;53186;47.382;18.904;2022-07-23T12:35:50;8.52;;;5.25;;
58141;SDS011;53186;47.382;18.904;2022-07-23T12:38:20;6.37;;;4.50;;
58141;SDS011;53186;47.382;18.904;2022-07-23T12:46:03;8.98;;;4.70;;
58141;SDS011;53186;47.382;18.904;2022-07-23T12:48:39;8.30;;;4.60;;
58141;SDS011;53186;47.382;18.904;2022-07-23T12:53:55;10.15;;;4.50;;
58141;SDS011;53186;47.382;18.904;2022-07-23T12:56:32;6.85;;;4.60;;
58141;SDS011;53186;47.382;18.904;2022-07-23T13:01:36;5.22;;;4.68;;
58141;SDS011;53186;47.382;18.904;2022-07-23T13:04:08;5.15;;;4.60;;
58141;SDS011;53186;47.382;18.904;2022-07-23T13:06:44;7.50;;;5.03;;
58141;SDS011;53186;47.382;18.904;2022-07-23T13:09:27;8.50;;;5.18;;
58141;SDS011;53186;47.382;18.904;2022-07-23T13:11:58;6.47;;;4.90;;
58141;SDS011;53186;47.382;18.904;2022-07-23T13:14:26;6.85;;;4.97;;
58141;SDS011;53186;47.382;18.904;2022-07-23T13:16:54;7.53;;;5.28;;
58141;SDS011;53186;47.382;18.904;2022-07-23T13:19:22;12.65;;;5.68;;
58141;SDS011;53186;47.382;18.904;2022-07-23T13:21:52;8.30;;;6.00;;
58141;SDS011;53186;47.382;18.904;2022-07-23T13:24:20;9.98;;;5.50;;
58141;SDS011;53186;47.382;18.904;2022-07-23T13:26:48;9.57;;;6.03;;
58141;SDS011;53186;47.382;18.904;2022-07-23T13:29:18;8.52;;;6.20;;
58141;SDS011;53186;47.382;18.904;2022-07-23T13:31:46;7.07;;;6.37;;
58141;SDS011;53186;47.382;18.904;2022-07-23T13:34:16;8.27;;;5.80;;
58141;SDS011;53186;47.382;18.904;2022-07-23T13:36:44;10.93;;;6.00;;
58141;SDS011;53186;47.382;18.904;2022-07-23T13:39:11;9.65;;;5.37;;
58141;SDS011;53186;47.382;18.904;2022-07-23T13:41:38;5.57;;;5.05;;
58141;SDS011;53186;47.382;18.904;2022-07-23T13:44:15;6.20;;;4.80;;
58141;SDS011;53186;47.382;18.904;2022-07-23T13:46:42;5.93;;;4.95;;
58141;SDS011;53186;47.382;18.904;2022-07-23T13:49:10;5.87;;;4.93;;
58141;SDS011;53186;47.382;18.904;2022-07-23T13:51:40;8.05;;;4.78;;
58141;SDS011;53186;47.382;18.904;2022-07-23T13:54:08;7.62;;;5.12;;
58141;SDS011;53186;47.382;18.904;2022-07-23T13:56:35;8.82;;;4.95;;
58141;SDS011;53186;47.382;18.904;2022-07-23T13:59:03;6.20;;;5.60;;
58141;SDS011;53186;47.382;18.904;2022-07-23T14:01:33;7.35;;;5.80;;
58141;SDS011;53186;47.382;18.904;2022-07-23T14:04:16;7.57;;;4.80;;
58141;SDS011;53186;47.382;18.904;2022-07-23T14:06:44;6.28;;;4.40;;
58141;SDS011;53186;47.382;18.904;2022-07-23T14:09:18;5.40;;;4.90;;
58141;SDS011;53186;47.382;18.904;2022-07-23T14:11:45;6.62;;;4.65;;
58141;SDS011;53186;47.382;18.904;2022-07-23T14:14:13;6.07;;;4.60;;
58141;SDS011;53186;47.382;18.904;2022-07-23T14:16:41;5.97;;;4.65;;
58141;SDS011;53186;47.382;18.904;2022-07-23T14:19:08;5.78;;;4.87;;
58141;SDS011;53186;47.382;18.904;2022-07-23T14:21:36;9.40;;;4.95;;
58141;SDS011;53186;47.382;18.904;2022-07-23T14:24:05;6.82;;;5.30;;
58141;SDS011;53186;47.382;18.904;2022-07-23T14:26:32;6.35;;;4.82;;
58141;SDS011;53186;47.382;18.904;2022-07-23T14:28:59;7.15;;;4.95;;
58141;SDS011;53186;47.382;18.904;2022-07-23T14:31:27;7.57;;;5.07;;
58141;SDS011;53186;47.382;18.904;2022-07-23T14:33:55;6.97;;;5.68;;
58141;SDS011;53186;47.382;18.904;2022-07-23T14:36:22;7.22;;;6.00;;
58141;SDS011;53186;47.382;18.904;2022-07-23T14:38:49;11.98;;;6.28;;
58141;SDS011;53186;47.382;18.904;2022-07-23T14:41:17;7.95;;;6.55;;
58141;SDS011;53186;47.382;18.904;2022-07-23T14:43:44;8.52;;;6.62;;
58141;SDS011;53186;47.382;18.904;2022-07-23T14:46:14;8.25;;;7.00;;
58141;SDS011;53186;47.382;18.904;2022-07-23T14:48:41;10.50;;;7.15;;
58141;SDS011;53186;47.382;18.904;2022-07-23T14:51:08;12.73;;;8.30;;
58141;SDS011;53186;47.382;18.904;2022-07-23T14:53:38;13.18;;;10.10;;
58141;SDS011;53186;47.382;18.904;2022-07-23T14:56:05;13.27;;;12.02;;
58141;SDS011;53186;47.382;18.904;2022-07-23T14:58:32;13.38;;;11.63;;
58141;SDS011;53186;47.382;18.904;2022-07-23T15:01:00;14.57;;;11.57;;
58141;SDS011;53186;47.382;18.904;2022-07-23T15:03:28;18.02;;;11.85;;
58141;SDS011;53186;47.382;18.904;2022-07-23T15:06:08;12.65;;;11.45;;
58141;SDS011;53186;47.382;18.904;2022-07-23T15:08:38;15.63;;;10.88;;
58141;SDS011;53186;47.382;18.904;2022-07-23T15:11:05;19.05;;;12.40;;
58141;SDS011;53186;47.382;18.904;2022-07-23T15:13:36;13.77;;;12.37;;
58141;SDS011;53186;47.382;18.904;2022-07-23T15:16:05;15.10;;;12.90;;
58141;SDS011;53186;47.382;18.904;2022-07-23T15:18:36;16.48;;;12.93;;
58141;SDS011;53186;47.382;18.904;2022-07-23T15:21:04;13.68;;;12.02;;
58141;SDS011;53186;47.382;18.904;2022-07-23T15:23:33;17.42;;;13.38;;
58141;SDS011;53186;47.382;18.904;2022-07-23T15:26:02;18.40;;;13.25;;
58141;SDS011;53186;47.382;18.904;2022-07-23T15:28:30;66.60;;;11.48;;
58141;SDS011;53186;47.382;18.904;2022-07-23T15:30:57;71.87;;;13.48;;
58141;SDS011;53186;47.382;18.904;2022-07-23T15:33:24;54.50;;;10.82;;
58141;SDS011;53186;47.382;18.904;2022-07-23T15:35:51;32.30;;;10.18;;
58141;SDS011;53186;47.382;18.904;2022-07-23T15:38:24;21.15;;;9.32;;
58141;SDS011;53186;47.382;18.904;2022-07-23T15:40:55;25.35;;;9.63;;
58141;SDS011;53186;47.382;18.904;2022-07-23T15:43:24;26.98;;;9.63;;
58141;SDS011;53186;47.382;18.904;2022-07-23T15:45:52;18.87;;;9.13;;
58141;SDS011;53186;47.382;18.904;2022-07-23T15:48:19;15.90;;;8.68;;
58141;SDS011;53186;47.382;18.904;2022-07-23T15:50:47;12.37;;;8.77;;
58141;SDS011;53186;47.382;18.904;2022-07-23T15:53:14;15.23;;;9.45;;